sensor_id;sensor_type;location;lat;lon;timestamp;P1;P2;P0
73623;PMS5003;61921;53.226;-1.296;2023-07-20T00:00:07;8;7;
73623;PMS5003;61921;53.226;-1.296;2023-07-20T00:02:32;9;6;
73623;PMS5003;61921;53.226;-1.296;2023-07-20T00:04:57;6;6;
73623;PMS5003;61921;53.226;-1.296;2023-07-20T00:07:22;8;8;
73623;PMS5003;61921;53.226;-1.296;2023-07-20T00:09:48;7;7;
73623;PMS5003;61921;53.226;-1.296;2023-07-20T00:12:13;9;8;
73623;PMS5003;61921;53.226;-1.296;2023-07-20T00:14:39;11;8;
73623;PMS5003;61921;53.226;-1.296;2023-07-20T00:17:04;9;9;
73623;PMS5003;61921;53.226;-1.296;2023-07-20T00:19:29;9;9;
73623;PMS5003;61921;53.226;-1.296;2023-07-20T00:21:54;8;8;
73623;PMS5003;61921;53.226;-1.296;2023-07-20T00:24:20;8;8;
73623;PMS5003;61921;53.226;-1.296;2023-07-20T00:26:45;10;8;
73623;PMS5003;61921;53.226;-1.296;2023-07-20T00:29:11;11;8;
73623;PMS5003;61921;53.226;-1.296;2023-07-20T00:31:36;8;8;
73623;PMS5003;61921;53.226;-1.296;2023-07-20T00:34:01;11;10;
73623;PMS5003;61921;53.226;-1.296;2023-07-20T00:36:27;7;7;
73623;PMS5003;61921;53.226;-1.296;2023-07-20T00:38:52;10;9;
73623;PMS5003;61921;53.226;-1.296;2023-07-20T00:41:18;9;9;
73623;PMS5003;61921;53.226;-1.296;2023-07-20T00:43:43;8;8;
73623;PMS5003;61921;53.226;-1.296;2023-07-20T00:46:08;8;8;
73623;PMS5003;61921;53.226;-1.296;2023-07-20T00:48:33;8;8;
73623;PMS5003;61921;53.226;-1.296;2023-07-20T00:50:59;8;8;
73623;PMS5003;61921;53.226;-1.296;2023-07-20T00:53:24;10;8;
73623;PMS5003;61921;53.226;-1.296;2023-07-20T00:55:49;8;8;
73623;PMS5003;61921;53.226;-1.296;2023-07-20T00:58:15;11;11;
73623;PMS5003;61921;53.226;-1.296;2023-07-20T01:00:40;11;10;
73623;PMS5003;61921;53.226;-1.296;2023-07-20T01:03:06;10;8;
73623;PMS5003;61921;53.226;-1.296;2023-07-20T01:05:35;9;9;
73623;PMS5003;61921;53.226;-1.296;2023-07-20T01:07:58;12;12;
73623;PMS5003;61921;53.226;-1.296;2023-07-20T01:10:24;11;9;
73623;PMS5003;61921;53.226;-1.296;2023-07-20T01:12:48;16;16;
73623;PMS5003;61921;53.226;-1.296;2023-07-20T01:15:13;9;8;
73623;PMS5003;61921;53.226;-1.296;2023-07-20T01:17:38;13;12;
73623;PMS5003;61921;53.226;-1.296;2023-07-20T01:20:04;11;9;
73623;PMS5003;61921;53.226;-1.296;2023-07-20T01:22:37;13;12;
73623;PMS5003;61921;53.226;-1.296;2023-07-20T01:24:58;11;8;
73623;PMS5003;61921;53.226;-1.296;2023-07-20T01:29:52;15;14;
73623;PMS5003;61921;53.226;-1.296;2023-07-20T01:32:10;13;13;
73623;PMS5003;61921;53.226;-1.296;2023-07-20T01:34:36;12;12;
73623;PMS5003;61921;53.226;-1.296;2023-07-20T01:37:01;16;14;
73623;PMS5003;61921;53.226;-1.296;2023-07-20T01:39:26;12;10;
73623;PMS5003;61921;53.226;-1.296;2023-07-20T01:41:52;15;12;
73623;PMS5003;61921;53.226;-1.296;2023-07-20T01:44:17;12;10;
73623;PMS5003;61921;53.226;-1.296;2023-07-20T01:46:42;12;12;
73623;PMS5003;61921;53.226;-1.296;2023-07-20T01:49:08;11;10;
73623;PMS5003;61921;53.226;-1.296;2023-07-20T01:51:33;11;11;
73623;PMS5003;61921;53.226;-1.296;2023-07-20T01:53:58;15;12;
73623;PMS5003;61921;53.226;-1.296;2023-07-20T01:56:24;10;10;
73623;PMS5003;61921;53.226;-1.296;2023-07-20T01:58:49;12;11;
73623;PMS5003;61921;53.226;-1.296;2023-07-20T02:01:15;11;10;
73623;PMS5003;61921;53.226;-1.296;2023-07-20T02:03:40;11;11;
73623;PMS5003;61921;53.226;-1.296;2023-07-20T02:06:05;15;14;
73623;PMS5003;61921;53.226;-1.296;2023-07-20T02:08:31;11;11;
73623;PMS5003;61921;53.226;-1.296;2023-07-20T02:10:56;13;10;
73623;PMS5003;61921;53.226;-1.296;2023-07-20T02:13:21;11;11;
73623;PMS5003;61921;53.226;-1.296;2023-07-20T02:15:47;14;11;
73623;PMS5003;61921;53.226;-1.296;2023-07-20T02:18:12;9;8;
73623;PMS5003;61921;53.226;-1.296;2023-07-20T02:20:38;15;13;
73623;PMS5003;61921;53.226;-1.296;2023-07-20T02:23:03;14;14;
73623;PMS5003;61921;53.226;-1.296;2023-07-20T02:25:29;13;12;
73623;PMS5003;61921;53.226;-1.296;2023-07-20T02:27:55;14;13;
73623;PMS5003;61921;53.226;-1.296;2023-07-20T02:30:19;13;12;
73623;PMS5003;61921;53.226;-1.296;2023-07-20T02:32:45;13;13;
73623;PMS5003;61921;53.226;-1.296;2023-07-20T02:35:10;17;16;
73623;PMS5003;61921;53.226;-1.296;2023-07-20T02:37:35;12;11;
73623;PMS5003;61921;53.226;-1.296;2023-07-20T02:40:00;12;11;
73623;PMS5003;61921;53.226;-1.296;2023-07-20T02:42:26;13;12;
73623;PMS5003;61921;53.226;-1.296;2023-07-20T02:44:51;14;13;
73623;PMS5003;61921;53.226;-1.296;2023-07-20T02:47:17;15;12;
73623;PMS5003;61921;53.226;-1.296;2023-07-20T02:49:42;14;13;
73623;PMS5003;61921;53.226;-1.296;2023-07-20T02:52:07;14;12;
73623;PMS5003;61921;53.226;-1.296;2023-07-20T02:54:33;13;11;
73623;PMS5003;61921;53.226;-1.296;2023-07-20T02:56:58;13;12;
73623;PMS5003;61921;53.226;-1.296;2023-07-20T02:59:24;12;11;
73623;PMS5003;61921;53.226;-1.296;2023-07-20T03:01:49;11;11;
73623;PMS5003;61921;53.226;-1.296;2023-07-20T03:04:14;14;14;
73623;PMS5003;61921;53.226;-1.296;2023-07-20T03:06:39;13;12;
73623;PMS5003;61921;53.226;-1.296;2023-07-20T03:09:04;14;14;
73623;PMS5003;61921;53.226;-1.296;2023-07-20T03:11:31;10;10;
73623;PMS5003;61921;53.226;-1.296;2023-07-20T03:13:55;16;14;
73623;PMS5003;61921;53.226;-1.296;2023-07-20T03:16:21;12;12;
73623;PMS5003;61921;53.226;-1.296;2023-07-20T03:18:46;14;11;
73623;PMS5003;61921;53.226;-1.296;2023-07-20T03:21:11;12;12;
73623;PMS5003;61921;53.226;-1.296;2023-07-20T03:23:36;9;8;
73623;PMS5003;61921;53.226;-1.296;2023-07-20T03:26:02;10;10;
73623;PMS5003;61921;53.226;-1.296;2023-07-20T03:28:27;18;12;
73623;PMS5003;61921;53.226;-1.296;2023-07-20T03:30:53;11;11;
73623;PMS5003;61921;53.226;-1.296;2023-07-20T03:33:18;13;12;
73623;PMS5003;61921;53.226;-1.296;2023-07-20T03:35:43;10;9;
73623;PMS5003;61921;53.226;-1.296;2023-07-20T03:38:08;12;10;
73623;PMS5003;61921;53.226;-1.296;2023-07-20T03:40:34;11;11;
73623;PMS5003;61921;53.226;-1.296;2023-07-20T03:43:00;14;11;
73623;PMS5003;61921;53.226;-1.296;2023-07-20T03:45:25;11;10;
73623;PMS5003;61921;53.226;-1.296;2023-07-20T03:47:51;17;16;
73623;PMS5003;61921;53.226;-1.296;2023-07-20T03:50:16;10;10;
73623;PMS5003;61921;53.226;-1.296;2023-07-20T03:52:42;13;10;
73623;PMS5003;61921;53.226;-1.296;2023-07-20T03:55:07;10;10;
73623;PMS5003;61921;53.226;-1.296;2023-07-20T03:57:33;12;10;
73623;PMS5003;61921;53.226;-1.296;2023-07-20T03:59:58;11;11;
73623;PMS5003;61921;53.226;-1.296;2023-07-20T04:02:23;8;8;
73623;PMS5003;61921;53.226;-1.296;2023-07-20T04:04:48;11;11;
73623;PMS5003;61921;53.226;-1.296;2023-07-20T04:07:13;10;10;
73623;PMS5003;61921;53.226;-1.296;2023-07-20T04:09:39;12;10;
73623;PMS5003;61921;53.226;-1.296;2023-07-20T04:12:04;10;10;
73623;PMS5003;61921;53.226;-1.296;2023-07-20T04:14:29;12;11;
73623;PMS5003;61921;53.226;-1.296;2023-07-20T04:16:55;10;10;
73623;PMS5003;61921;53.226;-1.296;2023-07-20T04:19:20;12;11;
73623;PMS5003;61921;53.226;-1.296;2023-07-20T04:21:45;9;8;
73623;PMS5003;61921;53.226;-1.296;2023-07-20T04:24:11;10;10;
73623;PMS5003;61921;53.226;-1.296;2023-07-20T04:26:36;11;11;
73623;PMS5003;61921;53.226;-1.296;2023-07-20T04:29:02;11;11;
73623;PMS5003;61921;53.226;-1.296;2023-07-20T04:31:28;12;9;
73623;PMS5003;61921;53.226;-1.296;2023-07-20T04:33:53;14;11;
73623;PMS5003;61921;53.226;-1.296;2023-07-20T04:36:18;13;13;
73623;PMS5003;61921;53.226;-1.296;2023-07-20T04:38:45;13;11;
73623;PMS5003;61921;53.226;-1.296;2023-07-20T04:41:10;11;9;
73623;PMS5003;61921;53.226;-1.296;2023-07-20T04:43:35;13;12;
73623;PMS5003;61921;53.226;-1.296;2023-07-20T04:46:01;13;12;
73623;PMS5003;61921;53.226;-1.296;2023-07-20T04:48:27;11;11;
73623;PMS5003;61921;53.226;-1.296;2023-07-20T04:50:52;13;13;
73623;PMS5003;61921;53.226;-1.296;2023-07-20T04:53:17;14;10;
73623;PMS5003;61921;53.226;-1.296;2023-07-20T04:55:47;16;15;
73623;PMS5003;61921;53.226;-1.296;2023-07-20T04:58:14;10;10;
73623;PMS5003;61921;53.226;-1.296;2023-07-20T05:00:34;11;10;
73623;PMS5003;61921;53.226;-1.296;2023-07-20T05:02:59;13;10;
73623;PMS5003;61921;53.226;-1.296;2023-07-20T05:05:24;9;9;
73623;PMS5003;61921;53.226;-1.296;2023-07-20T05:07:50;12;11;
73623;PMS5003;61921;53.226;-1.296;2023-07-20T05:10:15;12;11;
73623;PMS5003;61921;53.226;-1.296;2023-07-20T05:12:40;12;11;
73623;PMS5003;61921;53.226;-1.296;2023-07-20T05:15:06;16;15;
73623;PMS5003;61921;53.226;-1.296;2023-07-20T05:17:31;11;11;
73623;PMS5003;61921;53.226;-1.296;2023-07-20T05:19:57;13;11;
73623;PMS5003;61921;53.226;-1.296;2023-07-20T05:22:22;13;13;
73623;PMS5003;61921;53.226;-1.296;2023-07-20T05:24:47;18;18;
73623;PMS5003;61921;53.226;-1.296;2023-07-20T05:27:13;10;10;
73623;PMS5003;61921;53.226;-1.296;2023-07-20T05:29:43;14;14;
73623;PMS5003;61921;53.226;-1.296;2023-07-20T05:32:04;9;9;
73623;PMS5003;61921;53.226;-1.296;2023-07-20T05:34:29;14;11;
73623;PMS5003;61921;53.226;-1.296;2023-07-20T05:36:55;10;9;
73623;PMS5003;61921;53.226;-1.296;2023-07-20T05:39:21;12;12;
73623;PMS5003;61921;53.226;-1.296;2023-07-20T05:41:46;15;15;
73623;PMS5003;61921;53.226;-1.296;2023-07-20T05:44:11;15;12;
73623;PMS5003;61921;53.226;-1.296;2023-07-20T05:46:36;16;13;
73623;PMS5003;61921;53.226;-1.296;2023-07-20T05:49:02;14;14;
73623;PMS5003;61921;53.226;-1.296;2023-07-20T05:51:28;16;15;
73623;PMS5003;61921;53.226;-1.296;2023-07-20T05:53:53;13;13;
73623;PMS5003;61921;53.226;-1.296;2023-07-20T05:56:18;17;13;
73623;PMS5003;61921;53.226;-1.296;2023-07-20T05:58:44;11;11;
73623;PMS5003;61921;53.226;-1.296;2023-07-20T06:01:09;16;14;
73623;PMS5003;61921;53.226;-1.296;2023-07-20T06:03:35;18;15;
73623;PMS5003;61921;53.226;-1.296;2023-07-20T06:06:00;19;15;
73623;PMS5003;61921;53.226;-1.296;2023-07-20T06:08:25;17;14;
73623;PMS5003;61921;53.226;-1.296;2023-07-20T06:10:51;12;12;
73623;PMS5003;61921;53.226;-1.296;2023-07-20T06:13:16;15;13;
73623;PMS5003;61921;53.226;-1.296;2023-07-20T06:15:41;14;12;
73623;PMS5003;61921;53.226;-1.296;2023-07-20T06:18:06;14;12;
73623;PMS5003;61921;53.226;-1.296;2023-07-20T06:20:31;11;11;
73623;PMS5003;61921;53.226;-1.296;2023-07-20T06:22:57;13;12;
73623;PMS5003;61921;53.226;-1.296;2023-07-20T06:25:22;13;9;
73623;PMS5003;61921;53.226;-1.296;2023-07-20T06:27:48;12;11;
73623;PMS5003;61921;53.226;-1.296;2023-07-20T06:30:12;10;10;
73623;PMS5003;61921;53.226;-1.296;2023-07-20T06:32:38;20;16;
73623;PMS5003;61921;53.226;-1.296;2023-07-20T06:35:04;12;10;
73623;PMS5003;61921;53.226;-1.296;2023-07-20T06:37:28;16;12;
73623;PMS5003;61921;53.226;-1.296;2023-07-20T06:39:54;12;9;
73623;PMS5003;61921;53.226;-1.296;2023-07-20T06:42:20;13;12;
73623;PMS5003;61921;53.226;-1.296;2023-07-20T06:44:45;10;10;
73623;PMS5003;61921;53.226;-1.296;2023-07-20T06:47:10;10;10;
73623;PMS5003;61921;53.226;-1.296;2023-07-20T06:49:35;8;8;
73623;PMS5003;61921;53.226;-1.296;2023-07-20T06:52:00;12;10;
73623;PMS5003;61921;53.226;-1.296;2023-07-20T06:54:26;12;10;
73623;PMS5003;61921;53.226;-1.296;2023-07-20T06:56:52;12;12;
73623;PMS5003;61921;53.226;-1.296;2023-07-20T06:59:17;10;10;
73623;PMS5003;61921;53.226;-1.296;2023-07-20T07:01:42;13;11;
73623;PMS5003;61921;53.226;-1.296;2023-07-20T07:04:08;18;16;
73623;PMS5003;61921;53.226;-1.296;2023-07-20T07:06:33;18;12;
73623;PMS5003;61921;53.226;-1.296;2023-07-20T07:08:59;15;14;
73623;PMS5003;61921;53.226;-1.296;2023-07-20T07:11:24;14;13;
73623;PMS5003;61921;53.226;-1.296;2023-07-20T07:13:49;13;11;
73623;PMS5003;61921;53.226;-1.296;2023-07-20T07:16:14;13;11;
73623;PMS5003;61921;53.226;-1.296;2023-07-20T07:18:39;12;12;
73623;PMS5003;61921;53.226;-1.296;2023-07-20T07:21:05;16;13;
73623;PMS5003;61921;53.226;-1.296;2023-07-20T07:23:30;13;13;
73623;PMS5003;61921;53.226;-1.296;2023-07-20T07:25:56;12;12;
73623;PMS5003;61921;53.226;-1.296;2023-07-20T07:28:21;15;14;
73623;PMS5003;61921;53.226;-1.296;2023-07-20T07:30:48;15;13;
73623;PMS5003;61921;53.226;-1.296;2023-07-20T07:33:12;14;12;
73623;PMS5003;61921;53.226;-1.296;2023-07-20T07:35:38;18;16;
73623;PMS5003;61921;53.226;-1.296;2023-07-20T07:38:03;18;16;
73623;PMS5003;61921;53.226;-1.296;2023-07-20T07:40:28;16;15;
73623;PMS5003;61921;53.226;-1.296;2023-07-20T07:42:53;14;14;
73623;PMS5003;61921;53.226;-1.296;2023-07-20T07:45:19;17;17;
73623;PMS5003;61921;53.226;-1.296;2023-07-20T07:47:45;17;14;
73623;PMS5003;61921;53.226;-1.296;2023-07-20T07:50:10;21;18;
73623;PMS5003;61921;53.226;-1.296;2023-07-20T07:52:35;19;17;
73623;PMS5003;61921;53.226;-1.296;2023-07-20T07:55:00;19;15;
73623;PMS5003;61921;53.226;-1.296;2023-07-20T07:57:26;19;17;
73623;PMS5003;61921;53.226;-1.296;2023-07-20T07:59:52;16;16;
73623;PMS5003;61921;53.226;-1.296;2023-07-20T08:02:17;16;15;
73623;PMS5003;61921;53.226;-1.296;2023-07-20T08:04:42;16;15;
73623;PMS5003;61921;53.226;-1.296;2023-07-20T08:07:07;16;16;
73623;PMS5003;61921;53.226;-1.296;2023-07-20T08:09:33;19;14;
73623;PMS5003;61921;53.226;-1.296;2023-07-20T08:11:58;14;12;
73623;PMS5003;61921;53.226;-1.296;2023-07-20T08:14:23;17;17;
73623;PMS5003;61921;53.226;-1.296;2023-07-20T08:16:48;19;19;
73623;PMS5003;61921;53.226;-1.296;2023-07-20T08:19:14;18;18;
73623;PMS5003;61921;53.226;-1.296;2023-07-20T08:21:39;19;19;
73623;PMS5003;61921;53.226;-1.296;2023-07-20T08:24:05;19;18;
73623;PMS5003;61921;53.226;-1.296;2023-07-20T08:26:30;15;15;
73623;PMS5003;61921;53.226;-1.296;2023-07-20T08:28:55;18;17;
73623;PMS5003;61921;53.226;-1.296;2023-07-20T08:31:21;18;16;
73623;PMS5003;61921;53.226;-1.296;2023-07-20T08:33:46;19;16;
73623;PMS5003;61921;53.226;-1.296;2023-07-20T08:36:11;17;15;
73623;PMS5003;61921;53.226;-1.296;2023-07-20T08:38:37;19;17;
73623;PMS5003;61921;53.226;-1.296;2023-07-20T08:41:03;18;17;
73623;PMS5003;61921;53.226;-1.296;2023-07-20T08:43:28;21;19;
73623;PMS5003;61921;53.226;-1.296;2023-07-20T08:45:54;15;15;
73623;PMS5003;61921;53.226;-1.296;2023-07-20T08:48:19;16;15;
73623;PMS5003;61921;53.226;-1.296;2023-07-20T08:50:44;20;19;
73623;PMS5003;61921;53.226;-1.296;2023-07-20T08:53:10;24;22;
73623;PMS5003;61921;53.226;-1.296;2023-07-20T08:55:34;18;17;
73623;PMS5003;61921;53.226;-1.296;2023-07-20T08:58:00;19;19;
73623;PMS5003;61921;53.226;-1.296;2023-07-20T09:00:25;18;17;
73623;PMS5003;61921;53.226;-1.296;2023-07-20T09:02:52;20;16;
73623;PMS5003;61921;53.226;-1.296;2023-07-20T09:05:16;19;17;
73623;PMS5003;61921;53.226;-1.296;2023-07-20T09:07:41;22;15;
73623;PMS5003;61921;53.226;-1.296;2023-07-20T09:10:07;20;18;
73623;PMS5003;61921;53.226;-1.296;2023-07-20T09:12:34;18;17;
73623;PMS5003;61921;53.226;-1.296;2023-07-20T09:14:58;14;13;
73623;PMS5003;61921;53.226;-1.296;2023-07-20T09:17:25;19;18;
73623;PMS5003;61921;53.226;-1.296;2023-07-20T09:19:49;16;16;
73623;PMS5003;61921;53.226;-1.296;2023-07-20T09:22:14;16;16;
73623;PMS5003;61921;53.226;-1.296;2023-07-20T09:24:40;18;15;
73623;PMS5003;61921;53.226;-1.296;2023-07-20T09:27:05;17;16;
73623;PMS5003;61921;53.226;-1.296;2023-07-20T09:29:30;17;15;
73623;PMS5003;61921;53.226;-1.296;2023-07-20T09:31:58;16;16;
73623;PMS5003;61921;53.226;-1.296;2023-07-20T09:34:21;16;15;
73623;PMS5003;61921;53.226;-1.296;2023-07-20T09:36:46;16;15;
73623;PMS5003;61921;53.226;-1.296;2023-07-20T09:39:12;15;15;
73623;PMS5003;61921;53.226;-1.296;2023-07-20T09:41:40;17;17;
73623;PMS5003;61921;53.226;-1.296;2023-07-20T09:44:03;16;15;
73623;PMS5003;61921;53.226;-1.296;2023-07-20T09:48:53;15;14;
73623;PMS5003;61921;53.226;-1.296;2023-07-20T09:51:21;17;15;
73623;PMS5003;61921;53.226;-1.296;2023-07-20T09:53:45;17;15;
73623;PMS5003;61921;53.226;-1.296;2023-07-20T09:56:11;19;14;
73623;PMS5003;61921;53.226;-1.296;2023-07-20T09:58:36;16;14;
73623;PMS5003;61921;53.226;-1.296;2023-07-20T10:01:02;18;17;
73623;PMS5003;61921;53.226;-1.296;2023-07-20T10:03:28;16;16;
73623;PMS5003;61921;53.226;-1.296;2023-07-20T10:05:54;17;17;
73623;PMS5003;61921;53.226;-1.296;2023-07-20T10:08:17;13;13;
73623;PMS5003;61921;53.226;-1.296;2023-07-20T10:10:42;18;15;
73623;PMS5003;61921;53.226;-1.296;2023-07-20T10:13:08;12;12;
73623;PMS5003;61921;53.226;-1.296;2023-07-20T10:15:33;16;15;
73623;PMS5003;61921;53.226;-1.296;2023-07-20T10:18:01;18;14;
73623;PMS5003;61921;53.226;-1.296;2023-07-20T10:20:23;18;13;
73623;PMS5003;61921;53.226;-1.296;2023-07-20T10:22:49;18;17;
73623;PMS5003;61921;53.226;-1.296;2023-07-20T10:25:14;17;15;
73623;PMS5003;61921;53.226;-1.296;2023-07-20T10:27:40;18;17;
73623;PMS5003;61921;53.226;-1.296;2023-07-20T10:30:06;20;17;
73623;PMS5003;61921;53.226;-1.296;2023-07-20T10:32:32;15;14;
73623;PMS5003;61921;53.226;-1.296;2023-07-20T10:34:57;16;15;
73623;PMS5003;61921;53.226;-1.296;2023-07-20T10:39:49;18;16;
73623;PMS5003;61921;53.226;-1.296;2023-07-20T10:42:14;19;18;
73623;PMS5003;61921;53.226;-1.296;2023-07-20T10:44:40;18;18;
73623;PMS5003;61921;53.226;-1.296;2023-07-20T10:47:08;16;15;
73623;PMS5003;61921;53.226;-1.296;2023-07-20T10:49:30;18;16;
73623;PMS5003;61921;53.226;-1.296;2023-07-20T10:51:56;16;16;
73623;PMS5003;61921;53.226;-1.296;2023-07-20T10:56:47;20;16;
73623;PMS5003;61921;53.226;-1.296;2023-07-20T11:01:36;16;13;
73623;PMS5003;61921;53.226;-1.296;2023-07-20T11:04:02;18;18;
73623;PMS5003;61921;53.226;-1.296;2023-07-20T11:06:29;18;15;
73623;PMS5003;61921;53.226;-1.296;2023-07-20T11:08:55;16;13;
73623;PMS5003;61921;53.226;-1.296;2023-07-20T11:11:21;14;14;
73623;PMS5003;61921;53.226;-1.296;2023-07-20T11:16:08;15;12;
73623;PMS5003;61921;53.226;-1.296;2023-07-20T11:18:34;16;15;
73623;PMS5003;61921;53.226;-1.296;2023-07-20T11:20:59;16;14;
73623;PMS5003;61921;53.226;-1.296;2023-07-20T11:23:24;13;13;
73623;PMS5003;61921;53.226;-1.296;2023-07-20T11:25:50;12;12;
73623;PMS5003;61921;53.226;-1.296;2023-07-20T11:28:15;19;18;
73623;PMS5003;61921;53.226;-1.296;2023-07-20T11:30:41;23;19;
73623;PMS5003;61921;53.226;-1.296;2023-07-20T11:33:08;17;15;
73623;PMS5003;61921;53.226;-1.296;2023-07-20T11:35:34;15;15;
73623;PMS5003;61921;53.226;-1.296;2023-07-20T11:37:57;16;15;
73623;PMS5003;61921;53.226;-1.296;2023-07-20T11:40:22;15;14;
73623;PMS5003;61921;53.226;-1.296;2023-07-20T11:42:48;12;11;
73623;PMS5003;61921;53.226;-1.296;2023-07-20T11:45:13;16;14;
73623;PMS5003;61921;53.226;-1.296;2023-07-20T11:47:39;16;15;
73623;PMS5003;61921;53.226;-1.296;2023-07-20T11:50:04;15;13;
73623;PMS5003;61921;53.226;-1.296;2023-07-20T11:52:29;22;20;
73623;PMS5003;61921;53.226;-1.296;2023-07-20T11:54:54;14;14;
73623;PMS5003;61921;53.226;-1.296;2023-07-20T11:57:20;15;15;
73623;PMS5003;61921;53.226;-1.296;2023-07-20T11:59:54;17;16;
73623;PMS5003;61921;53.226;-1.296;2023-07-20T12:02:11;17;15;
73623;PMS5003;61921;53.226;-1.296;2023-07-20T12:04:37;17;17;
73623;PMS5003;61921;53.226;-1.296;2023-07-20T12:07:02;16;16;
73623;PMS5003;61921;53.226;-1.296;2023-07-20T12:09:27;17;17;
73623;PMS5003;61921;53.226;-1.296;2023-07-20T12:11:52;12;11;
73623;PMS5003;61921;53.226;-1.296;2023-07-20T12:14:18;16;16;
73623;PMS5003;61921;53.226;-1.296;2023-07-20T12:16:43;13;13;
73623;PMS5003;61921;53.226;-1.296;2023-07-20T12:19:09;15;13;
73623;PMS5003;61921;53.226;-1.296;2023-07-20T12:21:34;18;14;
73623;PMS5003;61921;53.226;-1.296;2023-07-20T12:23:59;12;11;
73623;PMS5003;61921;53.226;-1.296;2023-07-20T12:26:25;15;13;
73623;PMS5003;61921;53.226;-1.296;2023-07-20T12:28:50;13;13;
73623;PMS5003;61921;53.226;-1.296;2023-07-20T12:31:15;18;15;
73623;PMS5003;61921;53.226;-1.296;2023-07-20T12:33:41;14;13;
73623;PMS5003;61921;53.226;-1.296;2023-07-20T12:36:07;14;14;
73623;PMS5003;61921;53.226;-1.296;2023-07-20T12:38:31;15;15;
73623;PMS5003;61921;53.226;-1.296;2023-07-20T12:40:56;13;10;
73623;PMS5003;61921;53.226;-1.296;2023-07-20T12:43:21;12;12;
73623;PMS5003;61921;53.226;-1.296;2023-07-20T12:45:47;17;14;
73623;PMS5003;61921;53.226;-1.296;2023-07-20T12:48:13;14;13;
73623;PMS5003;61921;53.226;-1.296;2023-07-20T12:50:37;12;12;
73623;PMS5003;61921;53.226;-1.296;2023-07-20T12:53:03;16;14;
73623;PMS5003;61921;53.226;-1.296;2023-07-20T12:55:29;14;13;
73623;PMS5003;61921;53.226;-1.296;2023-07-20T12:57:54;14;13;
73623;PMS5003;61921;53.226;-1.296;2023-07-20T13:00:19;15;15;
73623;PMS5003;61921;53.226;-1.296;2023-07-20T13:02:44;14;14;
73623;PMS5003;61921;53.226;-1.296;2023-07-20T13:05:14;16;13;
73623;PMS5003;61921;53.226;-1.296;2023-07-20T13:07:34;12;12;
73623;PMS5003;61921;53.226;-1.296;2023-07-20T13:10:00;15;15;
73623;PMS5003;61921;53.226;-1.296;2023-07-20T13:12:25;9;9;
73623;PMS5003;61921;53.226;-1.296;2023-07-20T13:14:50;11;10;
73623;PMS5003;61921;53.226;-1.296;2023-07-20T13:17:15;14;13;
73623;PMS5003;61921;53.226;-1.296;2023-07-20T13:19:40;7;7;
73623;PMS5003;61921;53.226;-1.296;2023-07-20T13:22:05;12;10;
73623;PMS5003;61921;53.226;-1.296;2023-07-20T13:24:30;9;9;
73623;PMS5003;61921;53.226;-1.296;2023-07-20T13:26:55;8;8;
73623;PMS5003;61921;53.226;-1.296;2023-07-20T13:29:20;10;10;
73623;PMS5003;61921;53.226;-1.296;2023-07-20T13:31:45;18;13;
73623;PMS5003;61921;53.226;-1.296;2023-07-20T13:34:10;13;11;
73623;PMS5003;61921;53.226;-1.296;2023-07-20T13:36:35;14;14;
73623;PMS5003;61921;53.226;-1.296;2023-07-20T13:39:00;11;11;
73623;PMS5003;61921;53.226;-1.296;2023-07-20T13:41:25;15;13;
73623;PMS5003;61921;53.226;-1.296;2023-07-20T13:43:51;10;10;
73623;PMS5003;61921;53.226;-1.296;2023-07-20T13:46:16;9;9;
73623;PMS5003;61921;53.226;-1.296;2023-07-20T13:48:41;10;9;
73623;PMS5003;61921;53.226;-1.296;2023-07-20T13:51:06;8;7;
73623;PMS5003;61921;53.226;-1.296;2023-07-20T13:53:32;10;9;
73623;PMS5003;61921;53.226;-1.296;2023-07-20T13:55:57;7;7;
73623;PMS5003;61921;53.226;-1.296;2023-07-20T13:58:22;9;9;
73623;PMS5003;61921;53.226;-1.296;2023-07-20T14:00:47;11;11;
73623;PMS5003;61921;53.226;-1.296;2023-07-20T14:03:12;10;9;
73623;PMS5003;61921;53.226;-1.296;2023-07-20T14:05:38;11;10;
73623;PMS5003;61921;53.226;-1.296;2023-07-20T14:08:03;8;8;
73623;PMS5003;61921;53.226;-1.296;2023-07-20T14:10:28;9;9;
73623;PMS5003;61921;53.226;-1.296;2023-07-20T14:12:53;13;13;
73623;PMS5003;61921;53.226;-1.296;2023-07-20T14:15:19;12;11;
73623;PMS5003;61921;53.226;-1.296;2023-07-20T14:17:45;11;10;
73623;PMS5003;61921;53.226;-1.296;2023-07-20T14:20:10;11;10;
73623;PMS5003;61921;53.226;-1.296;2023-07-20T14:22:35;10;9;
73623;PMS5003;61921;53.226;-1.296;2023-07-20T14:25:00;11;11;
73623;PMS5003;61921;53.226;-1.296;2023-07-20T14:27:25;10;9;
73623;PMS5003;61921;53.226;-1.296;2023-07-20T14:29:50;12;10;
73623;PMS5003;61921;53.226;-1.296;2023-07-20T14:32:16;11;9;
73623;PMS5003;61921;53.226;-1.296;2023-07-20T14:34:41;11;9;
73623;PMS5003;61921;53.226;-1.296;2023-07-20T14:37:06;33;32;
73623;PMS5003;61921;53.226;-1.296;2023-07-20T14:39:32;46;39;
73623;PMS5003;61921;53.226;-1.296;2023-07-20T14:41:58;40;38;
73623;PMS5003;61921;53.226;-1.296;2023-07-20T14:44:23;16;15;
73623;PMS5003;61921;53.226;-1.296;2023-07-20T14:46:48;14;14;
73623;PMS5003;61921;53.226;-1.296;2023-07-20T14:49:13;13;11;
73623;PMS5003;61921;53.226;-1.296;2023-07-20T14:51:38;21;20;
73623;PMS5003;61921;53.226;-1.296;2023-07-20T14:54:04;17;14;
73623;PMS5003;61921;53.226;-1.296;2023-07-20T14:56:29;24;24;
73623;PMS5003;61921;53.226;-1.296;2023-07-20T14:58:54;19;17;
73623;PMS5003;61921;53.226;-1.296;2023-07-20T15:01:19;21;20;
73623;PMS5003;61921;53.226;-1.296;2023-07-20T15:03:45;10;10;
73623;PMS5003;61921;53.226;-1.296;2023-07-20T15:06:10;11;11;
73623;PMS5003;61921;53.226;-1.296;2023-07-20T15:08:35;11;11;
73623;PMS5003;61921;53.226;-1.296;2023-07-20T15:11:01;13;11;
73623;PMS5003;61921;53.226;-1.296;2023-07-20T15:13:26;16;13;
73623;PMS5003;61921;53.226;-1.296;2023-07-20T15:15:51;9;9;
73623;PMS5003;61921;53.226;-1.296;2023-07-20T15:18:17;9;9;
73623;PMS5003;61921;53.226;-1.296;2023-07-20T15:20:41;8;8;
73623;PMS5003;61921;53.226;-1.296;2023-07-20T15:23:07;10;9;
73623;PMS5003;61921;53.226;-1.296;2023-07-20T15:25:32;12;10;
73623;PMS5003;61921;53.226;-1.296;2023-07-20T15:27:57;10;10;
73623;PMS5003;61921;53.226;-1.296;2023-07-20T15:30:22;11;10;
73623;PMS5003;61921;53.226;-1.296;2023-07-20T15:32:47;9;8;
73623;PMS5003;61921;53.226;-1.296;2023-07-20T15:35:12;10;8;
73623;PMS5003;61921;53.226;-1.296;2023-07-20T15:37:37;7;7;
73623;PMS5003;61921;53.226;-1.296;2023-07-20T15:40:03;12;11;
73623;PMS5003;61921;53.226;-1.296;2023-07-20T15:42:27;8;8;
73623;PMS5003;61921;53.226;-1.296;2023-07-20T15:44:52;7;6;
73623;PMS5003;61921;53.226;-1.296;2023-07-20T15:47:17;11;11;
73623;PMS5003;61921;53.226;-1.296;2023-07-20T15:49:42;7;7;
73623;PMS5003;61921;53.226;-1.296;2023-07-20T15:52:07;13;10;
73623;PMS5003;61921;53.226;-1.296;2023-07-20T15:54:32;11;10;
73623;PMS5003;61921;53.226;-1.296;2023-07-20T15:56:57;9;8;
73623;PMS5003;61921;53.226;-1.296;2023-07-20T15:59:22;8;8;
73623;PMS5003;61921;53.226;-1.296;2023-07-20T16:01:47;10;9;
73623;PMS5003;61921;53.226;-1.296;2023-07-20T16:04:13;10;9;
73623;PMS5003;61921;53.226;-1.296;2023-07-20T16:06:38;11;10;